Time;durP1;ratioP1;P1;durP2;ratioP2;P2;SDS_P1;SDS_P2;PMS_P1;PMS_P2;Temp;Humidity;BMP_temperature;BMP_pressure;BME280_temperature;BME280_humidity;BME280_pressure;Samples;Min_cycle;Max_cycle;Signal;HPM_P1;HPM_P2
2022/11/18 00:01:39;;;;;;;16.50;10.53;;;13.80;95.30;;;;;;1877467;76;21095;-55
2022/11/18 00:04:09;;;;;;;14.47;9.55;;;13.80;95.50;;;;;;1877556;76;21113;-53
2022/11/18 00:06:37;;;;;;;12.88;8.75;;;13.80;95.60;;;;;;1877423;76;21133;-56
2022/11/18 00:09:07;;;;;;;16.90;10.80;;;13.90;95.60;;;;;;1877485;76;21116;-57
2022/11/18 00:14:26;;;;;;;18.07;9.70;;;13.90;95.70;;;;;;1877517;76;21075;-55
2022/11/18 00:16:57;;;;;;;11.83;7.80;;;13.90;95.60;;;;;;1877477;76;20999;-55
2022/11/18 00:19:29;;;;;;;15.58;9.60;;;13.90;95.50;;;;;;1877528;76;21075;-56
2022/11/18 00:21:58;;;;;;;14.90;8.53;;;13.90;95.40;;;;;;1877468;76;21099;-56
2022/11/18 00:24:28;;;;;;;10.28;6.40;;;13.80;95.30;;;;;;1877485;76;21095;-55
2022/11/18 00:26:57;;;;;;;8.13;5.37;;;13.90;95.60;;;;;;1877463;76;21506;-56
2022/11/18 00:29:27;;;;;;;7.97;5.30;;;13.90;95.60;;;;;;1877566;75;21109;-56
2022/11/18 00:31:56;;;;;;;12.18;5.87;;;13.90;95.60;;;;;;1877473;76;21100;-56
2022/11/18 00:34:26;;;;;;;5.78;4.40;;;13.90;95.60;;;;;;1877526;76;21148;-56
2022/11/18 00:36:54;;;;;;;7.33;4.90;;;13.80;95.60;;;;;;1877489;75;21019;-56
2022/11/18 00:39:24;;;;;;;4.97;3.98;;;13.90;95.50;;;;;;1877597;76;21175;-56
2022/11/18 00:44:41;;;;;;;4.83;3.05;;;13.90;95.50;;;;;;1877580;76;21569;-55
2022/11/18 00:47:10;;;;;;;6.62;2.67;;;13.90;95.70;;;;;;1877540;76;21047;-55
2022/11/18 00:49:39;;;;;;;5.30;3.40;;;13.90;95.70;;;;;;1877515;75;21074;-55
2022/11/18 00:52:08;;;;;;;5.65;2.50;;;13.90;95.70;;;;;;1877414;76;21062;-54
2022/11/18 00:54:38;;;;;;;7.17;2.92;;;13.90;95.70;;;;;;1877557;76;21035;-56
2022/11/18 00:57:07;;;;;;;3.85;2.40;;;14.00;95.60;;;;;;1877490;76;21027;-55
2022/11/18 00:59:36;;;;;;;5.92;3.17;;;14.00;95.50;;;;;;1877536;75;21027;-55
2022/11/18 01:02:05;;;;;;;2.98;2.02;;;14.00;95.30;;;;;;1877487;75;21100;-56
2022/11/18 01:04:34;;;;;;;3.52;2.25;;;14.10;95.20;;;;;;1877497;76;21043;-55
2022/11/18 01:07:03;;;;;;;6.22;2.33;;;14.10;95.00;;;;;;1877447;76;21014;-55
2022/11/18 01:09:32;;;;;;;3.98;2.37;;;14.10;94.90;;;;;;1877585;76;21026;-55
2022/11/18 01:14:48;;;;;;;3.67;1.92;;;14.10;94.70;;;;;;1877596;76;21164;-56
2022/11/18 01:17:18;;;;;;;5.90;2.90;;;14.10;94.70;;;;;;1877521;76;21011;-56
2022/11/18 01:19:46;;;;;;;6.62;2.98;;;14.10;94.70;;;;;;1877473;76;21058;-56
2022/11/18 01:22:15;;;;;;;5.60;2.83;;;14.10;94.70;;;;;;1877463;76;21461;-56
2022/11/18 01:24:45;;;;;;;4.62;1.90;;;14.10;94.80;;;;;;1877482;76;21089;-55
2022/11/18 01:27:14;;;;;;;4.47;3.80;;;14.10;94.70;;;;;;1877527;76;21097;-54
2022/11/18 01:29:43;;;;;;;7.20;2.92;;;14.20;94.70;;;;;;1877493;75;21022;-56
2022/11/18 01:32:12;;;;;;;5.53;2.50;;;14.20;94.70;;;;;;1877519;75;21034;-53
2022/11/18 01:34:41;;;;;;;6.92;3.52;;;14.20;94.70;;;;;;1877463;76;21046;-55
2022/11/18 01:37:10;;;;;;;7.08;3.15;;;14.30;94.70;;;;;;1877431;76;21019;-55
2022/11/18 01:39:39;;;;;;;5.53;3.20;;;14.30;94.70;;;;;;1877489;75;21022;-54
2022/11/18 01:42:17;;;;;;;5.97;2.45;;;14.30;94.70;;;;;;1877475;76;21073;-55
2022/11/18 01:45:10;;;;;;;9.60;4.67;;;14.30;94.60;;;;;;1872697;75;21138;-56
2022/11/18 01:47:42;;;;;;;8.05;3.75;;;14.30;94.50;;;;;;1867526;76;21129;-56
2022/11/18 01:50:14;;;;;;;6.42;3.27;;;14.30;94.50;;;;;;1866532;76;21125;-54
2022/11/18 01:52:43;;;;;;;8.63;3.67;;;14.30;94.40;;;;;;1867460;77;21055;-54
2022/11/18 01:55:15;;;;;;;7.95;3.70;;;14.30;94.30;;;;;;1867432;77;21032;-54
2022/11/18 01:57:46;;;;;;;7.65;3.80;;;14.40;94.30;;;;;;1866986;76;21498;-54
2022/11/18 02:00:17;;;;;;;11.65;4.72;;;14.40;94.30;;;;;;1867548;77;21044;-54
2022/11/18 02:02:46;;;;;;;5.00;3.25;;;14.40;94.10;;;;;;1867434;77;21089;-54
2022/11/18 02:05:16;;;;;;;6.12;3.05;;;14.50;94.10;;;;;;1867456;75;21000;-55
2022/11/18 02:07:46;;;;;;;11.90;4.83;;;14.50;93.80;;;;;;1867388;77;21031;-54
2022/11/18 02:10:21;;;;;;;6.85;4.28;;;14.60;94.00;;;;;;1867366;77;21039;-54
2022/11/18 02:12:53;;;;;;;3.30;2.60;;;14.60;94.00;;;;;;1867430;76;21047;-54
2022/11/18 02:15:27;;;;;;;6.47;4.00;;;14.60;94.00;;;;;;1867535;77;21399;-54
2022/11/18 02:18:00;;;;;;;;;;;14.60;94.00;;;;;;1869885;77;21059;-54
2022/11/18 02:20:35;;;;;;;7.42;3.50;;;14.60;93.80;;;;;;1862955;77;20149;-54
2022/11/18 02:23:29;;;;;;;8.33;4.67;;;14.60;93.80;;;;;;1867443;77;21076;-54
2022/11/18 02:26:29;;;;;;;6.85;3.85;;;14.60;93.80;;;;;;1867403;76;21090;-55
2022/11/18 02:29:12;;;;;;;8.90;3.42;;;14.60;93.60;;;;;;1866502;75;21094;-55
2022/11/18 02:31:56;;;;;;;8.85;4.10;;;14.60;93.30;;;;;;1867215;77;21519;-53
2022/11/18 02:34:34;;;;;;;4.78;3.15;;;14.70;93.40;;;;;;1867515;77;21182;-54
2022/11/18 02:37:05;;;;;;;6.90;3.77;;;14.70;93.30;;;;;;1867378;77;21028;-55
2022/11/18 02:39:40;;;;;;;8.48;3.70;;;14.70;93.20;;;;;;1867413;77;21082;-55
2022/11/18 02:42:12;;;;;;;6.37;3.00;;;14.70;93.20;;;;;;1867689;77;21074;-53
2022/11/18 02:44:44;;;;;;;13.48;4.72;;;14.70;93.10;;;;;;1867484;77;21082;-54
2022/11/18 02:47:15;;;;;;;4.08;2.67;;;14.70;93.20;;;;;;1867389;76;21076;-54
2022/11/18 02:49:47;;;;;;;8.55;4.47;;;14.70;93.10;;;;;;1867408;76;21094;-53
2022/11/18 02:52:19;;;;;;;8.13;4.33;;;14.70;93.20;;;;;;1867465;75;21032;-55
2022/11/18 02:54:49;;;;;;;7.80;4.85;;;14.70;93.30;;;;;;1867377;77;21484;-55
2022/11/18 02:57:20;;;;;;;9.48;4.35;;;14.60;93.40;;;;;;1867458;77;21118;-54
2022/11/18 02:59:50;;;;;;;10.60;4.72;;;14.60;93.40;;;;;;1867384;77;21569;-54
2022/11/18 03:02:20;;;;;;;9.90;6.05;;;14.60;93.50;;;;;;1867392;77;21349;-54
2022/11/18 03:04:51;;;;;;;10.38;5.37;;;14.60;93.60;;;;;;1867392;77;21858;-55
2022/11/18 03:07:25;;;;;;;10.38;5.05;;;14.60;93.60;;;;;;1867429;77;21157;-54
2022/11/18 03:09:56;;;;;;;6.97;4.95;;;14.50;93.60;;;;;;1867600;76;21048;-55
2022/11/18 03:12:46;;;;;;;11.65;5.08;;;14.50;93.60;;;;;;1867428;76;21028;-55
2022/11/18 03:15:33;;;;;;;10.10;4.70;;;14.50;93.70;;;;;;1867376;77;21060;-54
2022/11/18 03:18:20;;;;;;;7.72;4.30;;;14.50;93.70;;;;;;1867395;76;21537;-53
2022/11/18 03:20:52;;;;;;;14.83;6.03;;;14.50;93.70;;;;;;1867493;77;21083;-53
2022/11/18 03:23:30;;;;;;;11.28;5.03;;;14.50;93.60;;;;;;1867426;76;21451;-54
2022/11/18 03:26:11;;;;;;;12.88;5.97;;;14.50;93.70;;;;;;1867379;75;21573;-54
2022/11/18 03:28:55;;;;;;;8.58;4.62;;;14.50;93.70;;;;;;1867373;77;21044;-53
2022/11/18 03:31:29;;;;;;;12.07;5.65;;;14.50;93.70;;;;;;1867325;76;21115;-55
2022/11/18 03:34:04;;;;;;;11.75;6.05;;;14.50;93.70;;;;;;1867560;76;21000;-53
2022/11/18 03:36:35;;;;;;;9.48;5.05;;;14.50;93.80;;;;;;1867427;76;21588;-54
2022/11/18 03:39:06;;;;;;;14.95;6.33;;;14.50;93.90;;;;;;1867447;76;21032;-54
2022/11/18 03:41:38;;;;;;;5.55;4.40;;;14.40;93.80;;;;;;1867367;76;21039;-54
2022/11/18 03:44:12;;;;;;;9.28;5.22;;;14.40;93.90;;;;;;1867437;77;21202;-55
2022/11/18 03:46:54;;;;;;;10.53;5.53;;;14.40;93.90;;;;;;1867476;76;21214;-54
2022/11/18 03:49:26;;;;;;;9.78;5.00;;;14.40;94.00;;;;;;1867275;76;21126;-55
2022/11/18 03:51:57;;;;;;;11.38;5.83;;;14.40;94.00;;;;;;1866724;77;21484;-55
2022/11/18 03:54:29;;;;;;;8.33;4.72;;;14.40;93.90;;;;;;1867454;76;21444;-55
2022/11/18 03:57:05;;;;;;;8.18;4.10;;;14.40;93.70;;;;;;1867422;75;21514;-53
2022/11/18 03:59:37;;;;;;;10.43;4.10;;;14.40;94.00;;;;;;1867462;77;21059;-55
2022/11/18 04:02:15;;;;;;;8.53;4.85;;;14.40;93.80;;;;;;1867501;77;21044;-55
2022/11/18 04:04:46;;;;;;;8.98;4.90;;;14.40;93.80;;;;;;1866926;75;21031;-55
2022/11/18 04:07:21;;;;;;;10.35;4.20;;;14.40;93.80;;;;;;1867451;76;21498;-54
2022/11/18 04:10:14;;;;;;;9.58;5.35;;;14.40;93.70;;;;;;1867532;77;21386;-53
2022/11/18 04:12:55;;;;;;;9.80;4.60;;;14.40;93.60;;;;;;1867454;77;21043;-55
2022/11/18 04:15:25;;;;;;;8.70;4.70;;;14.40;93.50;;;;;;1867397;75;21098;-55
2022/11/18 04:17:54;;;;;;;9.55;4.25;;;14.40;93.50;;;;;;1867315;76;21060;-55
2022/11/18 04:20:25;;;;;;;8.48;3.02;;;14.40;93.20;;;;;;1867453;77;21113;-54
2022/11/18 04:22:54;;;;;;;7.92;3.67;;;14.40;92.70;;;;;;1867342;77;21089;-54
2022/11/18 04:25:26;;;;;;;8.20;4.37;;;14.40;92.80;;;;;;1867308;77;21098;-54
2022/11/18 04:27:55;;;;;;;5.42;4.03;;;14.40;92.70;;;;;;1867456;77;21140;-55
2022/11/18 04:30:24;;;;;;;8.53;3.37;;;14.40;92.30;;;;;;1867495;76;21110;-55
2022/11/18 04:32:53;;;;;;;6.35;3.35;;;14.40;91.80;;;;;;1867435;76;21089;-53
2022/11/18 04:35:23;;;;;;;6.12;3.25;;;14.40;92.00;;;;;;1867439;77;21093;-55
2022/11/18 04:37:52;;;;;;;8.08;3.72;;;14.40;91.60;;;;;;1867559;76;21047;-55
2022/11/18 04:40:21;;;;;;;7.10;4.08;;;14.40;91.40;;;;;;1867381;76;21083;-55
2022/11/18 04:42:50;;;;;;;6.67;3.50;;;14.40;91.70;;;;;;1867475;76;21066;-55
2022/11/18 04:45:19;;;;;;;10.48;4.53;;;14.40;91.50;;;;;;1867459;77;21035;-53
2022/11/18 04:47:48;;;;;;;8.55;4.45;;;14.40;91.60;;;;;;1867398;76;21071;-53
2022/11/18 04:50:18;;;;;;;11.43;4.58;;;14.40;91.70;;;;;;1867416;76;21036;-55
2022/11/18 04:52:47;;;;;;;8.23;4.12;;;14.40;91.70;;;;;;1867397;76;21091;-54
2022/11/18 04:55:16;;;;;;;9.45;4.40;;;14.40;91.90;;;;;;1867573;77;21043;-54
2022/11/18 04:57:46;;;;;;;10.28;4.37;;;14.40;91.90;;;;;;1867440;76;21048;-55
2022/11/18 05:00:15;;;;;;;7.03;5.45;;;14.40;91.70;;;;;;1867418;77;21063;-55
2022/11/18 05:02:44;;;;;;;10.38;4.65;;;14.30;91.90;;;;;;1867431;76;21044;-54
2022/11/18 05:05:13;;;;;;;8.60;4.75;;;14.30;91.90;;;;;;1867523;76;21032;-55
2022/11/18 05:07:42;;;;;;;8.55;4.67;;;14.30;92.00;;;;;;1867386;77;21102;-55
2022/11/18 05:10:11;;;;;;;8.48;5.17;;;14.40;92.10;;;;;;1867380;76;21063;-55
2022/11/18 05:12:49;;;;;;;11.18;5.03;;;14.40;92.10;;;;;;1867407;75;21098;-55
2022/11/18 05:15:20;;;;;;;17.00;5.62;;;14.40;92.10;;;;;;1867452;77;21098;-55
2022/11/18 05:17:49;;;;;;;12.43;5.42;;;14.30;92.10;;;;;;1867431;77;21040;-55
2022/11/18 05:20:19;;;;;;;8.25;5.10;;;14.30;92.10;;;;;;1867428;77;21185;-54
2022/11/18 05:22:48;;;;;;;9.63;4.62;;;14.30;92.10;;;;;;1867411;76;21108;-53
2022/11/18 05:25:17;;;;;;;7.80;5.03;;;14.30;92.20;;;;;;1867276;77;21015;-55
2022/11/18 05:27:46;;;;;;;7.90;4.22;;;14.30;92.20;;;;;;1867343;75;21036;-54
2022/11/18 05:30:15;;;;;;;10.08;5.70;;;14.30;92.20;;;;;;1867243;76;21031;-53
2022/11/18 05:32:45;;;;;;;7.78;4.92;;;14.30;92.30;;;;;;1867355;77;21047;-55
2022/11/18 05:35:14;;;;;;;10.70;5.20;;;14.30;92.20;;;;;;1867469;76;21036;-55
2022/11/18 05:37:43;;;;;;;9.78;5.15;;;14.30;92.20;;;;;;1867344;76;21446;-54
2022/11/18 05:40:12;;;;;;;9.73;4.35;;;14.30;92.30;;;;;;1867318;76;21024;-55
2022/11/18 05:45:29;;;;;;;6.53;4.47;;;14.30;92.20;;;;;;1867476;77;21057;-53
2022/11/18 05:48:03;;;;;;;10.93;6.00;;;14.30;92.10;;;;;;1867360;77;21067;-54
2022/11/18 05:50:33;;;;;;;9.60;5.33;;;14.30;92.10;;;;;;1867669;76;21090;-54
2022/11/18 05:53:03;;;;;;;8.85;5.22;;;14.30;92.10;;;;;;1867487;77;21502;-54
2022/11/18 05:55:37;;;;;;;8.93;5.72;;;14.30;92.10;;;;;;1867283;77;21008;-55
2022/11/18 05:58:07;;;;;;;10.70;5.60;;;14.30;92.00;;;;;;1867392;76;21032;-54
2022/11/18 06:00:36;;;;;;;13.55;6.22;;;14.30;92.10;;;;;;1867412;76;21102;-55
2022/11/18 06:03:08;;;;;;;6.65;4.53;;;14.30;92.10;;;;;;1867356;77;21106;-54
2022/11/18 06:05:37;;;;;;;13.90;5.58;;;14.30;91.80;;;;;;1867434;76;21036;-54
2022/11/18 06:08:08;;;;;;;11.38;5.47;;;14.30;92.10;;;;;;1867248;77;21147;-53
2022/11/18 06:10:40;;;;;;;4.97;3.87;;;14.40;91.70;;;;;;1867333;77;21044;-54
2022/11/18 06:13:11;;;;;;;8.53;5.22;;;14.40;91.40;;;;;;1867354;76;21110;-51
2022/11/18 06:15:43;;;;;;;6.90;3.67;;;14.40;91.70;;;;;;1867435;76;21000;-55
2022/11/18 06:18:15;;;;;;;10.35;4.47;;;14.40;91.30;;;;;;1867252;76;21039;-54
2022/11/18 06:20:45;;;;;;;6.37;4.08;;;14.40;91.50;;;;;;1867307;76;21530;-53
2022/11/18 06:23:14;;;;;;;9.35;4.70;;;14.40;91.20;;;;;;1867230;77;21126;-53
2022/11/18 06:25:44;;;;;;;7.30;4.35;;;14.40;91.20;;;;;;1867308;77;21032;-53
2022/11/18 06:28:15;;;;;;;9.75;5.22;;;14.40;91.10;;;;;;1867235;77;21015;-54
2022/11/18 06:30:44;;;;;;;18.20;7.08;;;14.50;91.20;;;;;;1867255;76;21012;-55
2022/11/18 06:33:13;;;;;;;8.65;5.30;;;14.50;91.10;;;;;;1867331;76;21079;-54
2022/11/18 06:35:43;;;;;;;7.62;4.10;;;14.50;91.20;;;;;;1867318;77;21063;-52
2022/11/18 06:38:12;;;;;;;6.15;3.90;;;14.50;91.10;;;;;;1867344;77;21177;-54
2022/11/18 06:40:43;;;;;;;7.17;4.47;;;14.60;90.90;;;;;;1867476;77;21091;-52
2022/11/18 06:48:48;;;;;;;9.20;4.10;;;14.60;90.60;;;;;;1869269;76;21432;-54
2022/11/18 06:51:18;;;;;;;7.55;3.85;;;14.60;90.50;;;;;;1873650;76;21023;-54
2022/11/18 06:53:47;;;;;;;10.13;4.67;;;14.60;90.60;;;;;;1873536;76;21032;-55
2022/11/18 06:56:17;;;;;;;11.78;4.03;;;14.60;90.50;;;;;;1873599;76;21517;-54
2022/11/18 06:58:47;;;;;;;6.28;3.67;;;14.60;90.50;;;;;;1873403;76;21035;-47
2022/11/18 07:01:18;;;;;;;9.55;4.80;;;14.60;90.30;;;;;;1873696;76;21113;-47
2022/11/18 07:03:47;;;;;;;10.28;5.58;;;14.60;90.30;;;;;;1848880;76;21102;-48
2022/11/18 07:06:27;;;;;;;11.18;6.25;;;14.60;90.40;;;;;;1834805;78;21064;-47
2022/11/18 07:09:07;;;;;;;9.40;4.47;;;14.50;90.30;;;;;;1831834;78;21134;-47
2022/11/18 07:11:48;;;;;;;9.05;4.10;;;14.50;90.50;;;;;;1833018;77;21145;-47
2022/11/18 07:14:26;;;;;;;7.35;3.00;;;14.50;90.30;;;;;;1832911;78;21051;-46
2022/11/18 07:17:07;;;;;;;13.58;4.83;;;14.50;90.10;;;;;;1832246;78;21063;-47
2022/11/18 07:19:38;;;;;;;10.25;3.75;;;14.50;90.30;;;;;;1832219;78;21044;-49
2022/11/18 07:22:07;;;;;;;9.13;3.83;;;14.40;90.30;;;;;;1832173;78;21122;-51
2022/11/18 07:24:36;;;;;;;6.85;4.12;;;14.50;90.40;;;;;;1832437;77;21032;-50
2022/11/18 07:27:06;;;;;;;9.63;5.25;;;14.50;90.50;;;;;;1832483;77;21102;-48
2022/11/18 07:29:35;;;;;;;8.53;4.37;;;14.60;90.60;;;;;;1832510;77;21147;-48
2022/11/18 07:32:04;;;;;;;10.05;4.40;;;14.60;90.60;;;;;;1832463;78;21044;-51
2022/11/18 07:34:33;;;;;;;8.75;4.33;;;14.70;90.30;;;;;;1832495;78;21119;-51
2022/11/18 07:37:03;;;;;;;8.60;4.83;;;14.80;90.20;;;;;;1832629;78;21074;-48
2022/11/18 07:39:32;;;;;;;5.33;3.45;;;14.80;90.10;;;;;;1833237;77;21197;-50
2022/11/18 07:42:01;;;;;;;11.60;4.12;;;14.90;90.10;;;;;;1836030;78;21044;-49
2022/11/18 07:44:30;;;;;;;8.45;4.28;;;14.90;89.80;;;;;;1835933;77;21200;-51
2022/11/18 07:46:59;;;;;;;12.37;6.92;;;14.90;89.40;;;;;;1836131;77;21049;-53
2022/11/18 07:49:28;;;;;;;8.38;3.17;;;15.00;89.50;;;;;;1838077;76;21064;-55
2022/11/18 07:51:58;;;;;;;11.60;4.40;;;15.00;88.60;;;;;;1842143;78;21004;-54
2022/11/18 07:54:27;;;;;;;9.40;4.17;;;15.10;88.70;;;;;;1842153;78;21040;-55
2022/11/18 07:56:56;;;;;;;12.60;3.95;;;15.10;88.60;;;;;;1838895;78;21197;-51
2022/11/18 07:59:25;;;;;;;6.10;3.15;;;15.10;88.80;;;;;;1838697;78;21063;-54
2022/11/18 08:01:56;;;;;;;11.80;4.28;;;15.10;88.60;;;;;;1838763;77;21059;-54
2022/11/18 08:04:25;;;;;;;7.58;3.02;;;15.20;88.80;;;;;;1838689;77;21051;-57
2022/11/18 08:06:54;;;;;;;12.15;3.72;;;15.20;88.70;;;;;;1838815;78;21040;-57
2022/11/18 08:09:23;;;;;;;11.30;4.35;;;15.30;88.90;;;;;;1838824;77;21066;-57
2022/11/18 08:11:52;;;;;;;5.45;3.42;;;15.30;87.70;;;;;;1838835;77;21087;-56
2022/11/18 08:14:23;;;;;;;12.15;4.50;;;15.30;87.50;;;;;;1838804;77;22219;-57
2022/11/18 08:16:52;;;;;;;13.95;4.70;;;15.30;88.00;;;;;;1838853;77;21032;-56
2022/11/18 08:19:21;;;;;;;5.72;3.47;;;15.30;88.20;;;;;;1838913;77;21459;-55
2022/11/18 08:21:50;;;;;;;6.85;2.95;;;15.30;88.10;;;;;;1838843;77;21048;-55
2022/11/18 08:24:20;;;;;;;9.65;3.85;;;15.30;88.00;;;;;;1838792;77;21114;-53
2022/11/18 08:26:49;;;;;;;7.35;4.28;;;15.30;88.00;;;;;;1838959;78;21056;-59
2022/11/18 08:29:18;;;;;;;12.50;4.58;;;15.30;88.40;;;;;;1838633;78;21020;-59
2022/11/18 08:31:48;;;;;;;9.58;4.35;;;15.30;87.80;;;;;;1838667;78;21048;-59
2022/11/18 08:34:17;;;;;;;28.83;7.00;;;15.30;87.50;;;;;;1838655;77;21122;-59
2022/11/18 08:36:46;;;;;;;8.75;3.37;;;15.30;88.20;;;;;;1838899;78;21028;-59
2022/11/18 08:39:15;;;;;;;14.78;4.25;;;15.30;87.70;;;;;;1838693;78;21066;-59
2022/11/18 08:41:45;;;;;;;4.72;3.37;;;15.30;87.20;;;;;;1838763;77;21107;-59
2022/11/18 08:44:16;;;;;;;14.03;5.50;;;15.30;87.30;;;;;;1838797;77;21071;-59
2022/11/18 08:46:46;;;;;;;7.30;4.90;;;15.30;87.20;;;;;;1838804;77;21172;-58
2022/11/18 08:49:15;;;;;;;11.55;4.40;;;15.30;87.60;;;;;;1838743;78;21109;-58
2022/11/18 08:51:45;;;;;;;11.15;4.78;;;15.30;87.70;;;;;;1832609;77;21499;-58
2022/11/18 08:54:14;;;;;;;13.60;4.87;;;15.20;87.60;;;;;;1832572;78;21568;-58
2022/11/18 08:56:43;;;;;;;17.20;5.55;;;15.20;87.60;;;;;;1832505;78;21157;-58
2022/11/18 08:59:14;;;;;;;13.72;5.35;;;15.20;87.90;;;;;;1832527;78;21134;-58
2022/11/18 09:01:42;;;;;;;21.17;6.97;;;15.20;88.20;;;;;;1832566;77;21141;-58
2022/11/18 09:04:11;;;;;;;12.40;5.20;;;15.20;88.00;;;;;;1832478;78;21506;-59
2022/11/18 09:06:40;;;;;;;10.88;5.03;;;15.30;88.30;;;;;;1832564;78;21040;-58
2022/11/18 09:09:10;;;;;;;7.15;4.95;;;15.30;88.00;;;;;;1832531;77;21135;-58
2022/11/18 09:11:40;;;;;;;16.17;6.58;;;15.30;88.00;;;;;;1832522;78;21036;-58
2022/11/18 09:14:11;;;;;;;10.38;5.12;;;15.30;88.20;;;;;;1832447;78;21043;-58
2022/11/18 09:16:40;;;;;;;11.08;5.83;;;15.40;88.30;;;;;;1832715;78;21122;-59
2022/11/18 09:19:09;;;;;;;9.20;3.87;;;15.40;88.70;;;;;;1832476;78;21071;-59
2022/11/18 11:04:03;;;;;;;8.25;5.33;;;15.90;85.70;;;;;;1958897;73;25755;-66
2022/11/18 11:06:39;;;;;;;12.98;6.30;;;15.90;87.30;;;;;;1918327;74;21058;-65
2022/11/18 11:09:14;;;;;;;8.73;4.75;;;15.90;86.50;;;;;;1918376;74;21043;-67
2022/11/18 11:12:04;;;;;;;11.30;5.42;;;16.00;86.50;;;;;;1915591;74;21151;-67
2022/11/18 11:14:39;;;;;;;12.88;5.47;;;16.00;85.00;;;;;;1918288;75;20995;-67
2022/11/18 11:17:29;;;;;;;13.30;6.90;;;16.00;86.40;;;;;;1918026;74;21026;-68
2022/11/18 11:20:00;;;;;;;12.10;6.37;;;15.90;85.70;;;;;;1918237;73;21076;-67
2022/11/18 11:22:30;;;;;;;8.63;5.37;;;15.80;85.10;;;;;;1917957;74;21112;-70
2022/11/18 11:24:59;;;;;;;17.73;7.33;;;15.90;86.00;;;;;;1918174;74;21092;-68
2022/11/18 11:27:46;;;;;;;7.92;6.22;;;15.80;86.10;;;;;;1918377;74;21084;-68
2022/11/18 11:30:18;;;;;;;14.30;6.53;;;15.80;86.30;;;;;;1918046;75;21014;-68
2022/11/18 11:33:11;;;;;;;13.40;6.40;;;15.80;86.30;;;;;;1918372;75;20983;-69
2022/11/18 11:36:04;;;;;;;12.80;6.33;;;15.80;86.30;;;;;;1917749;74;21105;-67
